Time;durP1;ratioP1;P1;durP2;ratioP2;P2;SDS_P1;SDS_P2;PMS_P1;PMS_P2;Temp;Humidity;BMP_temperature;BMP_pressure;BME280_temperature;BME280_humidity;BME280_pressure;Samples;Min_cycle;Max_cycle;Signal;HPM_P1;HPM_P2
2022/12/24 00:00:23;;;;;;;;;;;;;;;18.04;48.02;100297.22;5132826;28;19924;-56
2022/12/24 00:02:49;;;;;;;;;;;;;;;18.05;47.98;100298.88;5132705;27;19937;-56
2022/12/24 00:05:15;;;;;;;;;;;;;;;18.03;47.96;100298.34;5131835;28;20170;-56
2022/12/24 00:07:40;;;;;;;;;;;;;;;18.04;48.01;100299.97;5132757;28;19927;-56
2022/12/24 00:10:06;;;;;;;;;;;;;;;18.04;47.87;100303.56;5132438;28;19976;-56
2022/12/24 00:12:32;;;;;;;;;;;;;;;18.03;47.99;100296.41;5131843;27;20275;-56
2022/12/24 00:14:57;;;;;;;;;;;;;;;18.04;47.84;100314.56;5113873;28;19931;-55
2022/12/24 00:17:23;;;;;;;;;;;;;;;18.03;47.90;100312.94;5132286;28;19923;-56
2022/12/24 00:19:48;;;;;;;;;;;;;;;18.04;47.88;100324.78;5132864;28;19923;-56
2022/12/24 00:22:14;;;;;;;;;;;;;;;18.04;48.04;100322.03;5132624;28;19927;-56
2022/12/24 00:24:39;;;;;;;;;;;;;;;18.04;47.92;100316.50;5131834;28;19954;-56
2022/12/24 00:27:05;;;;;;;;;;;;;;;18.04;48.03;100325.59;5132701;28;19927;-56
2022/12/24 00:29:31;;;;;;;;;;;;;;;18.03;47.87;100318.44;5132198;28;19923;-56
2022/12/24 00:31:57;;;;;;;;;;;;;;;18.04;47.93;100317.31;5132491;28;20289;-56
2022/12/24 00:34:23;;;;;;;;;;;;;;;18.04;47.68;100319.25;5113587;28;19927;-56
2022/12/24 00:36:48;;;;;;;;;;;;;;;18.03;47.92;100323.13;5114283;28;19931;-56
2022/12/24 00:39:14;;;;;;;;;;;;;;;18.05;47.99;100318.19;5113995;28;20360;-56
2022/12/24 00:41:39;;;;;;;;;;;;;;;18.04;47.97;100320.09;5132235;28;19954;-56
2022/12/24 00:44:06;;;;;;;;;;;;;;;18.05;48.13;100329.19;5132389;28;20282;-56
2022/12/24 00:46:32;;;;;;;;;;;;;;;18.04;48.02;100324.78;5132378;28;19936;-56
2022/12/24 00:48:58;;;;;;;;;;;;;;;18.03;48.01;100332.22;5132378;28;19961;-56
2022/12/24 00:51:23;;;;;;;;;;;;;;;18.04;47.97;100335.78;5113779;28;19923;-56
2022/12/24 00:53:49;;;;;;;;;;;;;;;18.04;47.90;100342.13;5131664;28;20307;-56
2022/12/24 00:56:15;;;;;;;;;;;;;;;18.04;48.08;100344.88;5132081;28;19927;-56
2022/12/24 00:58:40;;;;;;;;;;;;;;;18.04;47.99;100358.66;5131523;28;19924;-56
2022/12/24 01:01:06;;;;;;;;;;;;;;;18.03;48.01;100346.00;5131888;28;19934;-56
2022/12/24 01:03:34;;;;;;;;;;;;;;;18.05;48.03;100348.50;5132003;27;19986;-56
2022/12/24 01:06:00;;;;;;;;;;;;;;;18.04;47.85;100361.41;5113806;28;19923;-56
2022/12/24 01:08:26;;;;;;;;;;;;;;;18.04;47.91;100368.84;5132340;28;19934;-56
2022/12/24 01:10:51;;;;;;;;;;;;;;;18.04;48.03;100377.94;5131787;28;20010;-56
2022/12/24 01:13:17;;;;;;;;;;;;;;;18.04;47.99;100369.69;5131604;27;19928;-56
2022/12/24 01:15:42;;;;;;;;;;;;;;;18.04;47.96;100377.13;5152264;27;19946;-55
2022/12/24 01:18:08;;;;;;;;;;;;;;;18.05;48.03;100381.56;5141805;27;19927;-56
2022/12/24 01:20:33;;;;;;;;;;;;;;;18.05;48.03;100381.56;5132114;28;19928;-55
2022/12/24 01:22:59;;;;;;;;;;;;;;;18.05;47.75;100387.06;5130758;27;19950;-56
2022/12/24 01:25:24;;;;;;;;;;;;;;;18.05;47.95;100387.06;5131153;28;19933;-56
2022/12/24 01:27:50;;;;;;;;;;;;;;;18.05;48.03;100387.06;5131501;28;19951;-56
2022/12/24 01:30:16;;;;;;;;;;;;;;;18.04;47.93;100385.38;5131593;28;19924;-56
2022/12/24 01:32:41;;;;;;;;;;;;;;;18.05;47.91;100395.31;5131086;28;20306;-56
2022/12/24 01:35:08;;;;;;;;;;;;;;;18.04;47.97;100394.47;5131409;28;19972;-56
2022/12/24 01:37:34;;;;;;;;;;;;;;;18.04;48.11;100399.97;5131762;28;19970;-56
2022/12/24 01:45:36;;;;;;;;;;;;;;;18.04;47.95;100402.75;5101830;28;20383;-56
2022/12/24 01:48:02;;;;;;;;;;;;;;;18.05;48.11;100407.16;5131074;28;20403;-56
2022/12/24 01:50:28;;;;;;;;;;;;;;;18.05;47.97;100407.16;5130899;28;19972;-56
2022/12/24 01:52:53;;;;;;;;;;;;;;;18.04;47.86;100401.94;5130722;28;19946;-56
2022/12/24 01:55:19;;;;;;;;;;;;;;;18.04;47.90;100405.50;5131015;28;19923;-56
2022/12/24 01:57:45;;;;;;;;;;;;;;;18.04;48.01;100412.94;5112637;28;20371;-56
2022/12/24 02:00:12;;;;;;;;;;;;;;;18.05;47.85;100414.63;5130940;28;19931;-56
2022/12/24 02:02:39;;;;;;;;;;;;;;;18.05;47.99;100417.38;5112648;28;19931;-56
2022/12/24 02:05:06;;;;;;;;;;;;;;;18.04;47.88;100416.53;5112684;28;19955;-56
2022/12/24 02:07:31;;;;;;;;;;;;;;;18.04;47.94;100416.53;5131302;28;19923;-56
2022/12/24 02:09:58;;;;;;;;;;;;;;;18.04;48.03;100422.03;5112681;28;19932;-56
2022/12/24 02:12:24;;;;;;;;;;;;;;;18.04;47.91;100419.28;5112122;27;19992;-56
2022/12/24 02:14:49;;;;;;;;;;;;;;;18.04;47.96;100430.28;5130297;28;20394;-56
2022/12/24 02:17:35;;;;;;;;;;;;;;;18.04;47.73;100441.31;5130965;28;20004;-56
2022/12/24 02:20:20;;;;;;;;;;;;;;;18.05;47.86;100450.44;5115168;28;20453;-56
2022/12/24 02:22:53;;;;;;;;;;;;;;;18.05;47.94;100442.16;5114954;28;19923;-56
2022/12/24 02:25:38;;;;;;;;;;;;;;;18.05;47.92;100458.69;5130932;28;19923;-56
2022/12/24 02:30:42;;;;;;;;;;;;;;;18.05;48.11;100461.47;5189847;27;19929;-56
2022/12/24 02:33:13;;;;;;;;;;;;;;;18.05;47.91;100464.22;5177559;27;19966;-56
2022/12/24 02:35:59;;;;;;;;;;;;;;;18.05;47.95;100473.31;5189529;27;20334;-56
2022/12/24 02:41:01;;;;;;;;;;;;;;;18.04;48.07;100466.13;5189669;27;20302;-56
2022/12/24 02:43:28;;;;;;;;;;;;;;;18.05;48.00;100469.72;5189791;27;19923;-55
2022/12/24 02:45:55;;;;;;;;;;;;;;;18.05;48.12;100489.00;5189902;27;19966;-56
2022/12/24 02:48:24;;;;;;;;;;;;;;;18.04;47.95;100490.91;5171626;27;20013;-56
2022/12/24 02:51:00;;;;;;;;;;;;;;;18.05;48.03;100486.25;5189607;27;19927;-56
2022/12/24 02:53:25;;;;;;;;;;;;;;;18.05;48.03;100492.59;5169768;27;19930;-56
2022/12/24 02:56:02;;;;;;;;;;;;;;;18.06;48.04;100490.66;5189352;27;19926;-56
2022/12/24 02:58:48;;;;;;;;;;;;;;;18.06;47.98;100493.41;5180671;27;19930;-56
2022/12/24 03:01:16;;;;;;;;;;;;;;;18.05;47.91;100500.84;5154828;27;19922;-56
2022/12/24 03:04:02;;;;;;;;;;;;;;;18.05;47.88;100498.09;5173978;27;19975;-56
2022/12/24 03:06:31;;;;;;;;;;;;;;;18.05;47.89;100492.59;5153121;27;19951;-56
2022/12/24 03:08:59;;;;;;;;;;;;;;;18.05;47.89;100487.06;5150018;27;19923;-56
2022/12/24 03:11:25;;;;;;;;;;;;;;;18.05;48.11;100489.84;5168261;27;20264;-56
2022/12/24 03:13:50;;;;;;;;;;;;;;;18.04;47.90;100496.44;5167871;27;20427;-56
2022/12/24 03:16:16;;;;;;;;;;;;;;;18.05;47.97;100498.09;5168397;27;19930;-56
2022/12/24 03:18:43;;;;;;;;;;;;;;;18.04;47.88;100496.44;5168427;27;19923;-56
2022/12/24 03:21:10;;;;;;;;;;;;;;;18.04;48.05;100499.19;5144290;27;20299;-56
2022/12/24 03:23:35;;;;;;;;;;;;;;;18.06;47.95;100512.69;5158173;27;20351;-56
2022/12/24 03:26:03;;;;;;;;;;;;;;;18.06;48.08;100507.19;5149111;27;20367;-56
2022/12/24 03:28:29;;;;;;;;;;;;;;;18.05;47.99;100509.13;5159088;27;20250;-56
2022/12/24 03:30:54;;;;;;;;;;;;;;;18.05;48.02;100509.13;5130158;27;19928;-56
2022/12/24 03:33:20;;;;;;;;;;;;;;;18.05;47.92;100511.88;5167474;27;19927;-56
2022/12/24 03:35:45;;;;;;;;;;;;;;;18.07;48.00;100510.75;5167743;27;19927;-56
2022/12/24 03:38:11;;;;;;;;;;;;;;;18.05;47.90;100520.16;5168051;27;19922;-56
2022/12/24 03:40:37;;;;;;;;;;;;;;;18.05;48.04;100517.38;5167938;27;19930;-56
2022/12/24 03:43:02;;;;;;;;;;;;;;;18.05;47.90;100517.38;5167797;27;20047;-56
2022/12/24 03:45:28;;;;;;;;;;;;;;;18.07;48.09;100510.75;5148992;27;19930;-56
2022/12/24 03:47:53;;;;;;;;;;;;;;;18.05;47.91;100505.53;5168038;27;20361;-56
2022/12/24 03:50:19;;;;;;;;;;;;;;;18.05;48.00;100520.16;5166349;27;19938;-56
2022/12/24 03:52:45;;;;;;;;;;;;;;;18.05;47.90;100522.91;5152955;27;20320;-56
2022/12/24 03:55:10;;;;;;;;;;;;;;;18.05;47.88;100522.91;5153656;27;19931;-56
2022/12/24 03:57:36;;;;;;;;;;;;;;;18.05;47.94;100528.41;5152577;27;19923;-56
2022/12/24 04:00:03;;;;;;;;;;;;;;;18.05;48.02;100528.41;5131769;27;19923;-56
2022/12/24 04:02:29;;;;;;;;;;;;;;;18.05;48.08;100533.91;5147717;27;19923;-56
2022/12/24 04:04:54;;;;;;;;;;;;;;;18.06;47.97;100526.47;5153466;27;19927;-56
2022/12/24 04:07:20;;;;;;;;;;;;;;;18.05;48.01;100524.84;5153703;27;20207;-56
2022/12/24 04:09:46;;;;;;;;;;;;;;;18.06;48.10;100534.75;5153544;27;19923;-56
2022/12/24 04:12:11;;;;;;;;;;;;;;;18.06;47.90;100543.00;5153335;27;19923;-56
2022/12/24 04:14:37;;;;;;;;;;;;;;;18.04;48.12;100543.28;5152833;27;19984;-56
2022/12/24 04:17:02;;;;;;;;;;;;;;;18.05;47.89;100536.69;5153602;27;19933;-56
2022/12/24 04:19:28;;;;;;;;;;;;;;;18.05;47.97;100539.44;5153576;27;20339;-56
2022/12/24 04:21:53;;;;;;;;;;;;;;;18.06;47.89;100543.00;5153420;27;19991;-56
2022/12/24 04:24:19;;;;;;;;;;;;;;;18.06;48.09;100551.28;5135351;27;19924;-56
2022/12/24 04:26:45;;;;;;;;;;;;;;;18.07;47.91;100549.34;5132814;28;19924;-56
2022/12/24 04:29:10;;;;;;;;;;;;;;;18.07;47.89;100554.84;5132224;28;19927;-55
2022/12/24 04:31:36;;;;;;;;;;;;;;;18.06;47.91;100548.53;5132228;28;19930;-56
2022/12/24 04:34:02;;;;;;;;;;;;;;;18.07;47.99;100554.84;5148162;27;20458;-56
2022/12/24 04:36:27;;;;;;;;;;;;;;;18.06;47.94;100554.03;5153201;27;19923;-56
2022/12/24 04:38:53;;;;;;;;;;;;;;;18.06;48.09;100554.03;5152670;27;19927;-56
2022/12/24 04:41:19;;;;;;;;;;;;;;;18.05;48.04;100561.47;5153080;27;19930;-56
2022/12/24 04:43:50;;;;;;;;;;;;;;;18.07;47.99;100557.59;5152886;27;20478;-56
2022/12/24 04:46:17;;;;;;;;;;;;;;;18.06;47.90;100570.56;5153098;27;19923;-56
2022/12/24 04:48:43;;;;;;;;;;;;;;;18.07;47.88;100568.63;5153135;27;20406;-56
2022/12/24 04:51:09;;;;;;;;;;;;;;;18.07;48.07;100572.19;5152863;27;20249;-56
2022/12/24 04:53:37;;;;;;;;;;;;;;;18.06;48.11;100570.56;5152471;27;19931;-56
2022/12/24 04:56:03;;;;;;;;;;;;;;;18.06;48.16;100578.84;5134038;27;19954;-56
2022/12/24 04:58:28;;;;;;;;;;;;;;;18.07;48.09;100579.66;5125106;28;19930;-55
2022/12/24 05:00:54;;;;;;;;;;;;;;;18.06;48.06;100570.56;5132696;27;20178;-56
2022/12/24 05:03:20;;;;;;;;;;;;;;;18.07;48.01;100582.41;5150676;27;19927;-56
2022/12/24 05:05:46;;;;;;;;;;;;;;;18.07;47.88;100587.91;5134036;27;20084;-56
2022/12/24 05:08:12;;;;;;;;;;;;;;;18.06;48.16;100587.09;5152638;27;19923;-56
2022/12/24 05:10:37;;;;;;;;;;;;;;;18.07;47.95;100596.19;5152152;27;19923;-56
2022/12/24 05:13:03;;;;;;;;;;;;;;;18.07;48.02;100599.75;5152191;27;19926;-56
2022/12/24 05:15:28;;;;;;;;;;;;;;;18.07;47.93;100596.19;5152384;27;20005;-56
2022/12/24 05:17:54;;;;;;;;;;;;;;;18.08;47.93;100600.59;5152603;27;19927;-56
2022/12/24 05:20:20;;;;;;;;;;;;;;;18.06;48.02;100592.59;5152504;27;20390;-56
2022/12/24 05:28:17;;;;;;;;;;;;;;;18.07;47.82;100604.44;5115933;28;19930;-56
2022/12/24 05:30:43;;;;;;;;;;;;;;;18.07;48.02;100612.72;5131265;28;19927;-56
2022/12/24 05:33:08;;;;;;;;;;;;;;;18.07;48.11;100613.53;5151696;27;20268;-56
2022/12/24 05:35:34;;;;;;;;;;;;;;;18.07;48.08;100610.78;5151318;27;19923;-56
2022/12/24 05:38:00;;;;;;;;;;;;;;;18.07;48.02;100613.53;5152102;27;19923;-56
2022/12/24 05:40:25;;;;;;;;;;;;;;;18.06;48.10;100614.66;5151914;27;19923;-56
2022/12/24 05:42:51;;;;;;;;;;;;;;;18.07;48.10;100618.22;5143228;27;19923;-56
2022/12/24 05:45:16;;;;;;;;;;;;;;;18.07;48.13;100610.78;5131276;28;20318;-56
2022/12/24 05:47:42;;;;;;;;;;;;;;;18.07;47.90;100616.28;5131306;28;19924;-56
2022/12/24 05:50:09;;;;;;;;;;;;;;;18.07;47.96;100613.53;5131471;28;19976;-55
2022/12/24 05:52:35;;;;;;;;;;;;;;;18.06;48.10;100614.66;5116178;27;20264;-56
2022/12/24 05:55:01;;;;;;;;;;;;;;;18.07;48.05;100627.31;5151471;27;19930;-56
2022/12/24 05:57:26;;;;;;;;;;;;;;;18.07;47.93;100624.56;5151797;27;19923;-56
2022/12/24 05:59:52;;;;;;;;;;;;;;;18.06;48.10;100625.69;5127458;27;19935;-56
2022/12/24 06:02:17;;;;;;;;;;;;;;;18.07;48.13;100632.00;5139955;27;19923;-56
2022/12/24 06:04:43;;;;;;;;;;;;;;;18.07;47.98;100637.53;5143798;27;20294;-56
2022/12/24 06:07:09;;;;;;;;;;;;;;;18.07;48.00;100637.53;5131202;28;20361;-56
2022/12/24 06:09:34;;;;;;;;;;;;;;;18.07;48.00;100632.84;5112070;28;19928;-56
2022/12/24 06:12:00;;;;;;;;;;;;;;;18.09;47.92;100638.06;5141548;27;19922;-56
2022/12/24 06:14:25;;;;;;;;;;;;;;;18.08;47.92;100639.16;5150907;27;19929;-56
2022/12/24 06:16:51;;;;;;;;;;;;;;;18.08;48.10;100648.25;5151689;27;20259;-56
2022/12/24 06:19:16;;;;;;;;;;;;;;;18.07;48.07;100649.38;5151645;27;19972;-56
2022/12/24 06:21:42;;;;;;;;;;;;;;;18.07;48.15;100648.53;5151588;27;20260;-55
2022/12/24 06:24:08;;;;;;;;;;;;;;;18.08;47.95;100652.94;5150735;27;19927;-56
2022/12/24 06:26:33;;;;;;;;;;;;;;;18.08;47.93;100650.19;5144055;27;20367;-56
2022/12/24 06:28:59;;;;;;;;;;;;;;;18.07;48.01;100652.13;5111972;28;19928;-56
2022/12/24 06:31:24;;;;;;;;;;;;;;;18.07;48.08;100654.06;5136422;27;19927;-56
2022/12/24 06:33:50;;;;;;;;;;;;;;;18.08;48.01;100652.94;5150727;27;19931;-56
2022/12/24 06:36:17;;;;;;;;;;;;;;;18.08;48.00;100647.44;5151344;27;19931;-56
2022/12/24 06:38:44;;;;;;;;;;;;;;;18.07;48.26;100645.78;5151363;27;20504;-56
2022/12/24 06:41:09;;;;;;;;;;;;;;;18.08;48.13;100644.69;5132602;27;19923;-56
2022/12/24 06:43:35;;;;;;;;;;;;;;;18.08;48.07;100647.44;5132461;27;19943;-56
2022/12/24 06:46:01;;;;;;;;;;;;;;;18.08;47.95;100648.25;5130517;28;19924;-56
2022/12/24 06:48:26;;;;;;;;;;;;;;;18.07;47.91;100652.13;5112245;28;19923;-56
2022/12/24 06:50:52;;;;;;;;;;;;;;;18.08;48.04;100655.69;5131125;27;19927;-56
2022/12/24 06:53:17;;;;;;;;;;;;;;;18.08;47.92;100666.72;5150419;27;19923;-55
2022/12/24 06:55:43;;;;;;;;;;;;;;;18.08;47.95;100670.28;5150814;27;20384;-56
2022/12/24 06:58:08;;;;;;;;;;;;;;;18.09;47.95;100676.63;5144951;27;19923;-56
2022/12/24 07:00:34;;;;;;;;;;;;;;;18.08;47.89;100684.06;5145100;27;19927;-56
2022/12/24 07:03:00;;;;;;;;;;;;;;;18.07;47.97;100685.19;5138367;27;19930;-56
2022/12/24 07:05:25;;;;;;;;;;;;;;;18.08;48.10;100680.50;5150727;27;20406;-56
2022/12/24 07:07:51;;;;;;;;;;;;;;;18.08;47.95;100675.00;5150946;27;20333;-56
2022/12/24 07:10:17;;;;;;;;;;;;;;;18.08;48.07;100680.50;5132339;27;20367;-56
2022/12/24 07:12:43;;;;;;;;;;;;;;;18.08;48.10;100675.00;5150650;27;19923;-56
2022/12/24 07:15:09;;;;;;;;;;;;;;;18.07;47.90;100684.38;5150358;27;20260;-56
2022/12/24 07:17:34;;;;;;;;;;;;;;;18.08;47.97;100689.59;5132037;27;19970;-56
2022/12/24 07:20:00;;;;;;;;;;;;;;;18.08;47.89;100680.50;5150875;27;19930;-56
2022/12/24 07:22:25;;;;;;;;;;;;;;;18.08;48.10;100684.06;5150641;27;19923;-56
2022/12/24 07:24:51;;;;;;;;;;;;;;;18.09;47.86;100684.91;5131781;27;19931;-55
2022/12/24 07:27:17;;;;;;;;;;;;;;;18.08;47.95;100684.06;5153288;27;19923;-56
2022/12/24 07:29:42;;;;;;;;;;;;;;;18.07;48.16;100687.94;5133859;27;19923;-56
2022/12/24 07:32:08;;;;;;;;;;;;;;;18.08;48.06;100697.03;5144762;27;20487;-56
2022/12/24 07:34:33;;;;;;;;;;;;;;;18.07;48.02;100704.47;5153541;27;19927;-56
2022/12/24 07:36:59;;;;;;;;;;;;;;;18.07;47.99;100698.97;5154377;27;19962;-56
2022/12/24 07:39:24;;;;;;;;;;;;;;;18.08;47.91;100705.31;5135464;27;19927;-56
2022/12/24 07:41:50;;;;;;;;;;;;;;;18.08;48.10;100700.63;5153529;27;19937;-56
2022/12/24 07:44:16;;;;;;;;;;;;;;;18.09;47.98;100720.72;5142364;27;19996;-56
2022/12/24 07:46:41;;;;;;;;;;;;;;;18.09;48.01;100723.47;5133406;28;19934;-56
2022/12/24 07:49:07;;;;;;;;;;;;;;;18.09;47.99;100729.00;5133184;28;20028;-56
2022/12/24 07:58:13;;;;;;;;;;;;;;;18.08;47.96;100738.38;5132856;28;19924;-56
2022/12/24 08:00:38;;;;;;;;;;;;;;;18.09;47.97;100740.00;5129838;27;20310;-56
2022/12/24 08:03:04;;;;;;;;;;;;;;;18.08;47.92;100738.38;5141393;27;19931;-55
2022/12/24 08:05:33;;;;;;;;;;;;;;;18.08;47.98;100746.63;5153631;27;20541;-56
2022/12/24 08:07:59;;;;;;;;;;;;;;;18.08;47.96;100747.47;5134838;27;20304;-56
2022/12/24 08:10:25;;;;;;;;;;;;;;;18.08;48.06;100752.97;5153760;27;20350;-56
2022/12/24 08:12:50;;;;;;;;;;;;;;;18.08;48.16;100749.41;5153269;27;19941;-56
2022/12/24 08:15:16;;;;;;;;;;;;;;;18.09;47.96;100762.06;5153076;27;19927;-56
2022/12/24 08:17:41;;;;;;;;;;;;;;;18.09;48.00;100773.09;5153676;27;19948;-56
2022/12/24 08:20:07;;;;;;;;;;;;;;;18.08;48.17;100772.25;5134853;27;19966;-56
2022/12/24 08:22:33;;;;;;;;;;;;;;;18.09;48.06;100781.34;5153137;27;20332;-56
2022/12/24 08:24:58;;;;;;;;;;;;;;;18.08;48.17;100780.53;5153096;27;20275;-56
2022/12/24 08:27:24;;;;;;;;;;;;;;;18.09;48.00;100778.59;5153542;27;19934;-56
2022/12/24 08:29:49;;;;;;;;;;;;;;;18.09;48.36;100786.88;5132467;27;19931;-56
2022/12/24 08:32:15;;;;;;;;;;;;;;;18.09;48.05;100793.22;5144413;27;19931;-56
2022/12/24 08:34:40;;;;;;;;;;;;;;;18.09;48.03;100801.50;5152701;27;19924;-56
2022/12/24 08:37:06;;;;;;;;;;;;;;;18.08;47.84;100794.31;5153123;27;19972;-56
2022/12/24 08:39:31;;;;;;;;;;;;;;;18.09;47.93;100804.25;5153083;27;20351;-56
2022/12/24 08:41:57;;;;;;;;;;;;;;;18.09;48.08;100803.41;5152982;27;19927;-56
2022/12/24 08:44:23;;;;;;;;;;;;;;;18.09;47.99;100797.88;5145907;27;19923;-56
2022/12/24 08:46:48;;;;;;;;;;;;;;;18.08;47.98;100808.09;5132502;28;19923;-56
2022/12/24 08:49:14;;;;;;;;;;;;;;;18.10;48.13;100816.09;5132184;28;19934;-56
2022/12/24 08:51:40;;;;;;;;;;;;;;;18.08;47.98;100808.09;5139709;27;19979;-56
2022/12/24 08:54:06;;;;;;;;;;;;;;;18.09;47.92;100811.66;5133241;27;19927;-56
2022/12/24 08:56:33;;;;;;;;;;;;;;;18.08;48.27;100812.78;5152974;27;19984;-56
2022/12/24 08:58:59;;;;;;;;;;;;;;;18.09;47.93;100811.66;5139491;27;19931;-56
2022/12/24 09:01:24;;;;;;;;;;;;;;;18.09;48.17;100812.53;5137650;27;19931;-56
2022/12/24 09:03:50;;;;;;;;;;;;;;;18.09;48.15;100806.16;5152522;27;19929;-55
2022/12/24 09:06:16;;;;;;;;;;;;;;;18.09;47.92;100811.66;5152973;27;19937;-55
2022/12/24 09:08:41;;;;;;;;;;;;;;;18.09;48.01;100818.03;5152735;27;19927;-55
2022/12/24 09:11:09;;;;;;;;;;;;;;;18.10;48.09;100821.59;5133829;27;19923;-55
2022/12/24 09:13:34;;;;;;;;;;;;;;;18.09;47.95;100820.78;5152041;27;20322;-56
2022/12/24 09:16:00;;;;;;;;;;;;;;;18.09;47.92;100825.44;5152344;27;20387;-56
2022/12/24 09:18:26;;;;;;;;;;;;;;;18.08;47.97;100832.88;5134016;27;19962;-56
2022/12/24 09:20:57;;;;;;;;;;;;;;;18.09;47.97;100837.31;5151929;27;19954;-56
2022/12/24 09:23:23;;;;;;;;;;;;;;;18.10;48.01;100838.16;5133525;27;19927;-56
2022/12/24 09:25:48;;;;;;;;;;;;;;;18.09;47.95;100844.72;5152310;27;19968;-56
2022/12/24 09:28:14;;;;;;;;;;;;;;;18.09;47.98;100848.34;5145551;27;20371;-56
2022/12/24 09:30:39;;;;;;;;;;;;;;;18.09;47.87;100853.00;5131595;28;19972;-56
2022/12/24 09:33:05;;;;;;;;;;;;;;;18.09;47.96;100864.03;5133243;27;20375;-56
2022/12/24 09:35:30;;;;;;;;;;;;;;;18.09;48.13;100875.91;5131163;28;19931;-56
2022/12/24 09:38:03;;;;;;;;;;;;;;;18.09;48.09;100875.91;5131502;28;19924;-56
2022/12/24 09:40:32;;;;;;;;;;;;;;;18.10;48.11;100887.75;5131044;28;20291;-56
2022/12/24 09:42:58;;;;;;;;;;;;;;;18.09;47.87;100883.31;5137780;27;19966;-56
2022/12/24 09:45:32;;;;;;;;;;;;;;;18.09;47.93;100897.94;5141590;27;19934;-56
2022/12/24 09:47:59;;;;;;;;;;;;;;;18.09;47.91;100892.44;5092614;28;19977;-56
2022/12/24 09:50:33;;;;;;;;;;;;;;;18.08;47.84;100893.53;5091944;28;19974;-55
2022/12/24 09:53:00;;;;;;;;;;;;;;;18.09;47.93;100891.59;5128905;27;19930;-56
2022/12/24 09:55:42;;;;;;;;;;;;;;;18.10;47.96;100898.78;5151478;27;19923;-56
2022/12/24 09:58:09;;;;;;;;;;;;;;;18.10;47.87;100904.28;5145071;27;19927;-56
2022/12/24 10:00:35;;;;;;;;;;;;;;;18.09;47.87;100902.59;5130363;28;20306;-56
2022/12/24 10:03:01;;;;;;;;;;;;;;;18.09;48.18;100903.47;5150102;27;20362;-56
2022/12/24 10:05:31;;;;;;;;;;;;;;;18.11;47.93;100909.50;5151565;27;19930;-56
2022/12/24 10:08:00;;;;;;;;;;;;;;;18.10;47.99;100913.38;5151796;27;19977;-56
2022/12/24 10:10:46;;;;;;;;;;;;;;;18.10;47.94;100913.38;5151967;27;19930;-56
2022/12/24 10:13:22;;;;;;;;;;;;;;;18.09;48.18;100913.63;5135887;27;19923;-56
2022/12/24 10:15:53;;;;;;;;;;;;;;;18.10;47.95;100921.66;5115701;28;20390;-54
2022/12/24 10:18:38;;;;;;;;;;;;;;;18.09;47.86;100922.75;5112668;28;19935;-55
2022/12/24 10:21:23;;;;;;;;;;;;;;;18.10;48.07;100924.41;5112328;28;19971;-55
2022/12/24 10:23:51;;;;;;;;;;;;;;;18.10;48.12;100923.59;5128692;27;20521;-56
2022/12/24 10:26:36;;;;;;;;;;;;;;;18.10;48.01;100931.84;5151380;27;19959;-56
2022/12/24 10:29:06;;;;;;;;;;;;;;;18.10;47.87;100926.34;5122180;28;19959;-56
2022/12/24 10:31:32;;;;;;;;;;;;;;;18.10;48.08;100926.34;5136567;27;19958;-56
2022/12/24 10:33:59;;;;;;;;;;;;;;;18.09;47.91;100931.03;5121455;28;19927;-55
2022/12/24 10:36:26;;;;;;;;;;;;;;;18.10;47.85;100918.06;5130557;28;19958;-56
2022/12/24 10:38:52;;;;;;;;;;;;;;;18.09;47.96;100927.41;5130612;28;19931;-56
2022/12/24 10:41:17;;;;;;;;;;;;;;;18.09;48.04;100928.28;5134600;27;20271;-56
2022/12/24 10:43:43;;;;;;;;;;;;;;;18.09;47.96;100930.16;5150992;27;19923;-56
2022/12/24 10:46:15;;;;;;;;;;;;;;;18.09;47.97;100925.50;5132629;27;19922;-56
2022/12/24 10:48:41;;;;;;;;;;;;;;;18.10;47.89;100926.34;5151295;27;20379;-56
2022/12/24 10:51:20;;;;;;;;;;;;;;;18.10;48.00;100918.88;5133713;27;19927;-56
2022/12/24 10:53:48;;;;;;;;;;;;;;;18.10;47.95;100920.81;5131969;27;19951;-56
2022/12/24 10:56:14;;;;;;;;;;;;;;;18.11;48.06;100908.69;5151094;27;19930;-54
2022/12/24 10:58:44;;;;;;;;;;;;;;;18.09;48.03;100906.22;5140235;27;19996;-55
2022/12/24 11:01:10;;;;;;;;;;;;;;;18.09;48.08;100910.88;5115592;27;19958;-56
2022/12/24 11:03:36;;;;;;;;;;;;;;;18.08;47.89;100907.28;5154059;27;19927;-56
2022/12/24 11:06:06;;;;;;;;;;;;;;;18.10;47.89;100910.63;5154842;27;19966;-56
2022/12/24 11:08:33;;;;;;;;;;;;;;;18.10;47.92;100901.53;5136038;27;20409;-56
2022/12/24 11:10:59;;;;;;;;;;;;;;;18.09;47.88;100922.75;5118600;27;20342;-56
2022/12/24 11:13:26;;;;;;;;;;;;;;;18.10;47.86;100918.88;5154529;27;19931;-56
2022/12/24 11:16:05;;;;;;;;;;;;;;;18.11;47.97;100914.19;5135043;27;20015;-56
2022/12/24 11:18:31;;;;;;;;;;;;;;;18.10;47.88;100915.31;5134007;28;19930;-56
2022/12/24 11:20:59;;;;;;;;;;;;;;;18.10;48.16;100915.31;5134420;27;19924;-56
2022/12/24 11:23:25;;;;;;;;;;;;;;;18.10;48.05;100918.88;5153903;27;19931;-55
2022/12/24 11:25:51;;;;;;;;;;;;;;;18.10;48.13;100913.38;5154205;27;19923;-55
2022/12/24 11:28:21;;;;;;;;;;;;;;;18.10;47.95;100918.06;5128455;28;20307;-56
2022/12/24 11:30:55;;;;;;;;;;;;;;;18.10;48.11;100913.38;5114917;28;20355;-56
2022/12/24 11:33:21;;;;;;;;;;;;;;;18.11;47.91;100908.69;5113975;27;20002;-55
2022/12/24 11:35:47;;;;;;;;;;;;;;;18.10;47.85;100907.88;5123611;28;20325;-56
2022/12/24 11:38:18;;;;;;;;;;;;;;;18.10;47.96;100912.56;5133558;28;19930;-56
2022/12/24 11:40:44;;;;;;;;;;;;;;;18.10;47.95;100916.13;5141303;27;19978;-56
2022/12/24 11:43:14;;;;;;;;;;;;;;;18.10;47.92;100909.81;5142752;27;20473;-56
2022/12/24 11:45:44;;;;;;;;;;;;;;;18.11;47.78;100911.44;5135442;27;19934;-56
2022/12/24 11:48:22;;;;;;;;;;;;;;;18.11;47.81;100909.50;5135174;27;20320;-55
2022/12/24 11:50:51;;;;;;;;;;;;;;;18.10;48.00;100918.88;5135494;27;19927;-56
2022/12/24 11:53:18;;;;;;;;;;;;;;;18.10;47.95;100916.13;5153441;27;20026;-56
2022/12/24 11:55:48;;;;;;;;;;;;;;;18.10;48.13;100909.81;5153384;27;19923;-56
2022/12/24 11:58:33;;;;;;;;;;;;;;;18.11;47.95;100912.28;5128633;28;19923;-56
2022/12/24 12:01:03;;;;;;;;;;;;;;;18.10;47.95;100913.38;5118911;27;19924;-56
2022/12/24 12:03:37;;;;;;;;;;;;;;;18.11;48.08;100912.28;5135940;27;19931;-56
2022/12/24 12:06:03;;;;;;;;;;;;;;;18.10;47.93;100916.13;5154017;27;20355;-55
2022/12/24 12:08:29;;;;;;;;;;;;;;;18.10;47.95;100918.88;5153531;27;19930;-56
2022/12/24 12:10:54;;;;;;;;;;;;;;;18.11;48.05;100922.47;5153213;27;19923;-55
2022/12/24 12:13:22;;;;;;;;;;;;;;;18.11;47.94;100928.81;5148106;27;19924;-56
2022/12/24 12:15:49;;;;;;;;;;;;;;;18.11;48.07;100920.53;5115259;28;20352;-56
2022/12/24 12:18:17;;;;;;;;;;;;;;;18.10;47.96;100916.13;5094190;28;19932;-56
2022/12/24 12:20:45;;;;;;;;;;;;;;;18.10;47.91;100927.16;5112284;28;19970;-56
2022/12/24 12:23:23;;;;;;;;;;;;;;;18.10;48.02;100921.66;5151658;27;19969;-56
2022/12/24 12:26:08;;;;;;;;;;;;;;;18.11;47.86;100923.28;5134736;27;19955;-56
2022/12/24 12:28:36;;;;;;;;;;;;;;;18.11;47.96;100925.22;5127420;28;19930;-56
2022/12/24 12:31:04;;;;;;;;;;;;;;;18.11;48.10;100926.06;5134628;27;19930;-55
2022/12/24 12:33:43;;;;;;;;;;;;;;;18.12;47.89;100935.16;5135668;27;20316;-56
2022/12/24 12:36:09;;;;;;;;;;;;;;;18.11;48.08;100939.84;5134474;27;19962;-56
2022/12/24 12:38:35;;;;;;;;;;;;;;;18.11;47.97;100941.75;5115085;28;19967;-55
2022/12/24 12:41:05;;;;;;;;;;;;;;;18.11;48.09;100947.28;5141218;27;19923;-56
2022/12/24 12:43:42;;;;;;;;;;;;;;;18.11;48.18;100944.53;5143237;27;19923;-56
2022/12/24 12:49:08;;;;;;;;;;;;;;;18.11;48.02;100961.88;5190176;27;19925;-56
2022/12/24 12:51:41;;;;;;;;;;;;;;;18.11;47.88;100955.53;5189782;27;19930;-55
2022/12/24 12:54:27;;;;;;;;;;;;;;;18.11;47.98;100969.31;5188835;27;20294;-55
2022/12/24 12:56:53;;;;;;;;;;;;;;;18.11;47.84;100972.91;5174071;27;19946;-56
2022/12/24 12:59:29;;;;;;;;;;;;;;;18.11;47.94;100966.56;5188012;27;19930;-56
2022/12/24 13:02:15;;;;;;;;;;;;;;;18.11;48.06;100970.16;5170827;27;19923;-56